createdAt,value
2022-10-04T00:02:38.288Z,9.77
2022-10-04T00:05:26.101Z,9.75
2022-10-04T00:07:56.957Z,10.15
2022-10-04T00:10:34.748Z,10.23
2022-10-04T00:13:17.827Z,9.15
2022-10-04T00:16:32.614Z,9.90
2022-10-04T00:19:36.854Z,9.80
2022-10-04T00:23:07.758Z,10.27
2022-10-04T00:25:37.202Z,9.48
2022-10-04T00:28:49.744Z,9.40
2022-10-04T00:35:10.777Z,10.55
2022-10-04T00:41:43.481Z,10.20
2022-10-04T00:44:28.917Z,9.10
2022-10-04T00:53:27.828Z,10.70
2022-10-04T00:56:09.804Z,9.70
2022-10-04T00:59:09.700Z,9.18
2022-10-04T01:02:27.123Z,10.27
2022-10-04T01:14:58.547Z,11.05
2022-10-04T01:17:44.419Z,11.90
2022-10-04T01:20:46.285Z,10.68
2022-10-04T01:23:34.509Z,11.23
2022-10-04T01:26:05.798Z,10.45
2022-10-04T01:28:37.517Z,11.02
2022-10-04T01:31:10.280Z,12.02
2022-10-04T01:33:51.761Z,12.63
2022-10-04T01:36:24.584Z,13.00
2022-10-04T01:39:04.417Z,11.55
2022-10-04T01:41:50.815Z,13.05
2022-10-04T01:44:25.799Z,12.15
2022-10-04T01:47:00.698Z,11.98
2022-10-04T01:49:44.320Z,11.85
2022-10-04T01:52:31.000Z,12.40
2022-10-04T01:55:23.842Z,12.23
2022-10-04T01:57:57.965Z,10.70
2022-10-04T02:00:32.081Z,11.40
2022-10-04T02:03:04.857Z,11.98
2022-10-04T02:05:40.857Z,12.18
2022-10-04T02:08:13.898Z,12.18
2022-10-04T02:10:53.749Z,11.48
2022-10-04T02:13:25.502Z,11.13
2022-10-04T02:16:06.515Z,12.38
2022-10-04T02:18:49.003Z,11.07
2022-10-04T02:21:26.037Z,13.90
2022-10-04T02:24:09.240Z,10.90
2022-10-04T02:29:25.058Z,10.77
2022-10-04T02:32:14.843Z,11.45
2022-10-04T02:34:51.578Z,12.60
2022-10-04T02:37:29.976Z,10.18
2022-10-04T02:40:47.848Z,9.77
2022-10-04T02:43:32.495Z,11.32
2022-10-04T02:46:07.785Z,10.38
2022-10-04T02:48:44.644Z,10.13
2022-10-04T02:51:25.228Z,10.40
2022-10-04T02:54:05.574Z,11.18
2022-10-04T02:56:39.914Z,11.05
2022-10-04T02:59:20.876Z,10.80
2022-10-04T03:02:03.078Z,9.75
2022-10-04T03:04:42.046Z,11.00
2022-10-04T03:07:32.500Z,11.43
2022-10-04T03:10:10.122Z,12.43
2022-10-04T03:12:46.765Z,10.07
2022-10-04T03:15:34.706Z,12.65
2022-10-04T03:18:07.758Z,12.02
2022-10-04T03:20:42.208Z,11.20
2022-10-04T03:23:13.422Z,11.55
2022-10-04T03:25:50.075Z,11.80
2022-10-04T03:28:19.297Z,11.93
2022-10-04T03:30:48.541Z,11.20
2022-10-04T03:33:30.683Z,11.50
2022-10-04T03:36:00.866Z,11.82
2022-10-04T03:38:29.201Z,12.05
2022-10-04T03:41:01.529Z,12.68
2022-10-04T03:43:53.780Z,13.27
2022-10-04T03:46:25.156Z,12.65
2022-10-04T03:48:55.798Z,11.23
2022-10-04T03:51:28.652Z,12.68
2022-10-04T03:54:02.956Z,12.27
2022-10-04T03:56:38.393Z,11.77
2022-10-04T03:59:18.171Z,13.85
2022-10-04T04:02:03.849Z,12.68
2022-10-04T04:04:51.104Z,14.57
2022-10-04T04:07:37.711Z,13.32
2022-10-04T04:10:16.803Z,13.93
2022-10-04T04:12:53.611Z,13.68
2022-10-04T04:15:22.473Z,13.07
2022-10-04T04:17:59.851Z,15.82
2022-10-04T04:20:32.713Z,15.68
2022-10-04T04:23:13.714Z,15.57
2022-10-04T04:25:44.562Z,15.85
2022-10-04T04:28:24.733Z,14.77
2022-10-04T04:30:56.275Z,14.57
2022-10-04T04:35:56.053Z,15.18
2022-10-04T04:38:25.622Z,14.82
2022-10-04T04:41:11.971Z,17.90
2022-10-04T04:43:51.194Z,14.38
2022-10-04T04:46:28.134Z,16.85
2022-10-04T04:48:59.970Z,16.70
2022-10-04T04:51:50.393Z,15.70
2022-10-04T04:54:24.076Z,15.95
2022-10-04T04:56:56.002Z,16.40
2022-10-04T04:59:25.885Z,16.15
2022-10-04T05:02:29.974Z,16.23
2022-10-04T05:05:28.937Z,15.73
2022-10-04T05:08:26.522Z,17.17
2022-10-04T05:11:04.187Z,16.48
2022-10-04T05:13:37.153Z,15.80
2022-10-04T05:16:12.554Z,16.40
2022-10-04T05:18:47.351Z,16.65
2022-10-04T05:21:26.980Z,16.30
2022-10-04T05:24:09.431Z,16.67
2022-10-04T05:26:41.772Z,17.88
2022-10-04T05:29:21.868Z,16.75
2022-10-04T05:32:08.664Z,16.13
2022-10-04T05:34:48.938Z,17.80
2022-10-04T05:38:06.455Z,17.00
2022-10-04T05:40:48.851Z,16.40
2022-10-04T05:43:37.606Z,15.70
2022-10-04T05:46:31.545Z,17.23
2022-10-04T05:49:19.086Z,16.67
2022-10-04T05:51:54.686Z,15.95
2022-10-04T05:54:30.071Z,17.00
2022-10-04T05:58:05.141Z,17.20
2022-10-04T06:04:31.663Z,17.73
2022-10-04T06:07:45.268Z,18.67
2022-10-04T06:14:17.256Z,18.42
2022-10-04T06:32:55.796Z,18.15
2022-10-04T06:36:02.537Z,17.38
2022-10-04T06:39:08.821Z,18.88
2022-10-04T06:42:30.317Z,18.83
2022-10-04T06:45:37.943Z,17.40
2022-10-04T06:52:07.361Z,17.42
2022-10-04T06:55:00.948Z,18.35
2022-10-04T06:58:10.252Z,18.52
2022-10-04T07:01:05.689Z,18.15
2022-10-04T07:04:27.926Z,18.08
2022-10-04T07:07:38.107Z,19.65
2022-10-04T07:10:48.303Z,18.70
2022-10-04T07:13:46.866Z,18.90
2022-10-04T07:16:38.442Z,17.70
2022-10-04T07:19:42.576Z,17.85
2022-10-04T07:22:42.299Z,17.67
2022-10-04T07:25:54.382Z,16.80
2022-10-04T07:28:40.805Z,16.63
2022-10-04T07:31:42.966Z,16.02
2022-10-04T07:34:39.131Z,16.05
2022-10-04T07:40:32.031Z,16.15
2022-10-04T07:43:33.514Z,15.80
2022-10-04T07:46:43.455Z,16.17
2022-10-04T07:52:50.684Z,16.33
2022-10-04T07:55:53.760Z,16.95
2022-10-04T07:59:15.627Z,15.90
2022-10-04T08:02:40.906Z,15.15
2022-10-04T08:06:27.567Z,15.10
2022-10-04T08:15:53.971Z,15.82
2022-10-04T08:21:58.674Z,15.77
2022-10-04T08:25:17.872Z,15.23
2022-10-04T08:28:12.689Z,14.15
2022-10-04T08:31:28.683Z,14.10
2022-10-04T08:34:35.197Z,13.93
2022-10-04T08:37:23.927Z,13.77
2022-10-04T08:40:30.640Z,13.00
2022-10-04T08:43:43.764Z,12.70
2022-10-04T08:46:58.641Z,12.52
2022-10-04T08:50:11.661Z,12.68
2022-10-04T08:53:10.822Z,11.98
2022-10-04T08:56:12.720Z,12.85
2022-10-04T08:59:21.778Z,12.60
2022-10-04T09:02:36.861Z,11.88
2022-10-04T09:05:34.718Z,11.32
2022-10-04T09:08:37.661Z,10.23
2022-10-04T09:11:42.594Z,10.88
2022-10-04T09:14:38.015Z,11.70
2022-10-04T09:17:22.814Z,12.07
2022-10-04T09:20:19.581Z,13.82
2022-10-04T09:23:06.354Z,13.32
2022-10-04T09:26:18.515Z,12.00
2022-10-04T09:29:28.752Z,13.25
2022-10-04T09:32:33.631Z,13.63
2022-10-04T09:35:33.034Z,14.55
2022-10-04T09:38:40.820Z,15.20
2022-10-04T09:41:54.297Z,15.40
2022-10-04T09:45:10.896Z,14.95
2022-10-04T09:48:23.553Z,15.90
2022-10-04T09:51:36.311Z,15.52
2022-10-04T09:54:51.968Z,15.40
2022-10-04T09:57:49.803Z,15.27
2022-10-04T10:00:29.891Z,14.90
2022-10-04T10:13:33.359Z,14.75
2022-10-04T10:16:41.571Z,14.77
2022-10-04T10:19:36.158Z,13.52
2022-10-04T10:22:43.876Z,14.02
2022-10-04T10:32:24.583Z,13.25
2022-10-04T10:35:55.652Z,12.40
2022-10-04T10:39:15.731Z,12.05
2022-10-04T10:42:20.959Z,11.93
2022-10-04T10:45:31.189Z,12.10
2022-10-04T10:48:19.858Z,11.52
2022-10-04T10:51:18.990Z,11.27
2022-10-04T10:54:30.004Z,9.68
2022-10-04T10:57:12.111Z,10.10
2022-10-04T11:00:35.172Z,9.73
2022-10-04T11:03:59.347Z,9.77
2022-10-04T11:07:13.396Z,9.60
2022-10-04T11:10:31.204Z,10.32
2022-10-04T11:13:56.084Z,9.75
2022-10-04T11:17:04.013Z,7.97
2022-10-04T11:20:06.741Z,7.90
2022-10-04T11:23:17.978Z,8.02
2022-10-04T11:26:30.871Z,8.25
2022-10-04T11:29:15.487Z,8.02
2022-10-04T11:32:15.345Z,7.38
2022-10-04T11:35:20.334Z,7.55
2022-10-04T11:38:06.605Z,7.78
2022-10-04T11:40:48.677Z,7.35
2022-10-04T11:43:29.577Z,7.72
2022-10-04T11:46:11.864Z,7.50
2022-10-04T11:48:52.144Z,7.63
2022-10-04T11:52:09.675Z,6.90
2022-10-04T11:55:20.613Z,6.95
2022-10-04T11:57:51.125Z,6.27
2022-10-04T12:00:20.108Z,6.30
2022-10-04T12:03:00.950Z,6.72
2022-10-04T12:05:42.346Z,6.80
2022-10-04T12:08:26.166Z,7.80
2022-10-04T12:11:32.939Z,8.40
2022-10-04T12:14:10.605Z,7.75
2022-10-04T12:17:01.074Z,6.47
2022-10-04T12:19:53.961Z,6.40
2022-10-04T12:22:45.365Z,6.00
2022-10-04T12:25:42.619Z,7.18
2022-10-04T12:28:29.954Z,6.50
2022-10-04T12:31:10.907Z,6.70
2022-10-04T12:33:46.789Z,6.00
2022-10-04T12:36:43.009Z,6.15
2022-10-04T12:39:39.180Z,6.35
2022-10-04T12:42:37.823Z,6.07
2022-10-04T12:48:59.528Z,5.95
2022-10-04T12:52:04.529Z,5.95
2022-10-04T12:54:46.932Z,6.07
2022-10-04T12:57:51.120Z,5.95
2022-10-04T13:00:42.795Z,6.30
2022-10-04T13:03:48.409Z,5.45
2022-10-04T13:06:45.068Z,5.65
2022-10-04T13:10:12.085Z,5.10
2022-10-04T13:13:12.022Z,4.68
2022-10-04T13:19:11.255Z,5.53
2022-10-04T13:22:56.421Z,5.45
2022-10-04T13:25:53.141Z,5.68
2022-10-04T13:28:34.195Z,4.72
2022-10-04T13:31:13.635Z,5.40
2022-10-04T13:34:18.113Z,5.30
2022-10-04T13:37:27.350Z,4.93
2022-10-04T13:40:22.811Z,5.13
2022-10-04T13:43:44.496Z,4.30
2022-10-04T13:49:29.277Z,4.70
2022-10-04T13:52:42.114Z,4.78
2022-10-04T13:59:33.800Z,4.90
2022-10-04T14:02:52.191Z,4.35
2022-10-04T14:09:33.551Z,4.30
2022-10-04T14:12:43.197Z,4.40
2022-10-04T14:15:49.209Z,3.70
2022-10-04T14:18:59.997Z,4.50
2022-10-04T14:22:18.109Z,3.97
2022-10-04T14:28:52.492Z,4.13
2022-10-04T14:35:28.674Z,4.60
2022-10-04T14:42:09.068Z,4.55
2022-10-04T14:45:27.946Z,3.65
2022-10-04T14:55:25.919Z,7.43
2022-10-04T14:58:23.975Z,8.32
2022-10-04T15:07:54.223Z,6.88
2022-10-04T15:29:29.539Z,6.97
2022-10-04T15:32:46.445Z,9.35
2022-10-04T15:35:36.059Z,10.07
2022-10-04T15:38:39.376Z,9.57
2022-10-04T15:41:36.517Z,9.68
2022-10-04T15:44:45.019Z,8.43
2022-10-04T15:47:32.062Z,7.53
2022-10-04T15:50:22.862Z,6.97
2022-10-04T15:53:19.990Z,5.20
2022-10-04T15:56:12.520Z,5.10
2022-10-04T15:58:53.315Z,4.78
2022-10-04T16:01:44.824Z,5.25
2022-10-04T16:04:37.164Z,4.70
2022-10-04T16:07:34.390Z,4.95
2022-10-04T16:10:14.785Z,4.80
2022-10-04T16:13:05.422Z,5.30
2022-10-04T16:15:34.840Z,4.78
2022-10-04T16:18:25.420Z,7.28
2022-10-04T16:21:10.220Z,5.20
2022-10-04T16:23:39.962Z,5.97
2022-10-04T16:26:16.684Z,6.93
2022-10-04T16:33:07.263Z,11.13
2022-10-04T16:36:17.288Z,13.52
2022-10-04T16:42:17.884Z,17.50
2022-10-04T16:45:19.725Z,16.80
2022-10-04T16:48:02.948Z,14.85
2022-10-04T16:51:13.318Z,13.38
2022-10-04T16:53:55.388Z,11.75
2022-10-04T16:56:28.710Z,9.85
2022-10-04T16:59:38.796Z,8.38
2022-10-04T17:02:29.028Z,6.22
2022-10-04T17:05:19.831Z,5.95
2022-10-04T17:08:37.844Z,5.13
2022-10-04T17:12:27.979Z,5.18
2022-10-04T17:15:24.196Z,4.80
2022-10-04T17:18:38.565Z,5.22
2022-10-04T17:21:41.837Z,5.30
2022-10-04T17:24:45.252Z,5.35
2022-10-04T17:27:58.638Z,6.20
2022-10-04T17:30:49.361Z,5.43
2022-10-04T17:34:00.935Z,5.63
2022-10-04T17:36:57.312Z,5.97
2022-10-04T17:39:54.285Z,5.78
2022-10-04T17:46:01.147Z,7.00
2022-10-04T17:49:07.255Z,6.70
2022-10-04T17:51:56.816Z,6.35
2022-10-04T17:54:44.563Z,7.97
2022-10-04T18:03:24.188Z,7.80
2022-10-04T18:05:57.202Z,7.82
2022-10-04T18:08:44.525Z,7.50
2022-10-04T18:11:27.796Z,7.97
2022-10-04T18:14:06.626Z,7.95
2022-10-04T18:16:53.184Z,8.10
2022-10-04T18:19:45.471Z,8.27
2022-10-04T18:22:38.724Z,8.27
2022-10-04T18:25:18.364Z,8.82
2022-10-04T18:28:15.649Z,8.30
2022-10-04T18:33:56.415Z,7.93
2022-10-04T18:36:28.950Z,8.18
2022-10-04T18:39:03.430Z,7.75
2022-10-04T18:44:53.486Z,8.07
2022-10-04T18:47:38.479Z,8.18
2022-10-04T18:50:31.238Z,8.25
2022-10-04T18:53:31.421Z,8.02
2022-10-04T18:56:33.081Z,7.75
2022-10-04T18:59:20.132Z,8.55
2022-10-04T19:02:31.395Z,8.65
2022-10-04T19:05:08.864Z,9.65
2022-10-04T19:07:55.619Z,8.38
2022-10-04T19:10:41.113Z,8.15
2022-10-04T19:16:57.383Z,7.65
2022-10-04T19:19:50.681Z,7.90
2022-10-04T19:22:35.094Z,7.68
2022-10-04T19:25:28.699Z,9.00
2022-10-04T19:28:03.720Z,7.75
2022-10-04T19:30:49.157Z,8.57
2022-10-04T19:33:27.146Z,7.88
2022-10-04T19:36:09.017Z,8.23
2022-10-04T19:39:12.540Z,8.48
2022-10-04T19:41:55.929Z,7.88
2022-10-04T19:44:42.346Z,8.90
2022-10-04T19:47:26.706Z,8.07
2022-10-04T19:50:06.240Z,8.27
2022-10-04T19:52:51.612Z,8.25
2022-10-04T19:55:24.502Z,7.95
2022-10-04T19:58:03.741Z,8.07
2022-10-04T20:00:34.690Z,7.88
2022-10-04T20:09:51.287Z,7.78
2022-10-04T20:13:12.012Z,8.50
2022-10-04T20:16:16.052Z,8.77
2022-10-04T20:19:15.063Z,7.95
2022-10-04T20:24:57.809Z,8.80
2022-10-04T20:28:04.948Z,7.93
2022-10-04T20:30:53.685Z,9.02
2022-10-04T20:33:49.108Z,8.27
2022-10-04T20:36:51.630Z,8.52
2022-10-04T20:40:01.144Z,8.48
2022-10-04T20:42:40.713Z,8.43
2022-10-04T20:45:27.898Z,8.57
2022-10-04T20:47:55.882Z,8.23
2022-10-04T20:50:39.836Z,8.45
2022-10-04T20:53:24.178Z,9.07
2022-10-04T20:56:08.280Z,9.35
2022-10-04T20:58:35.666Z,8.43
2022-10-04T21:01:07.464Z,8.70
2022-10-04T21:03:35.861Z,8.52
2022-10-04T21:06:05.805Z,8.98
2022-10-04T21:08:36.535Z,8.73
2022-10-04T21:11:23.282Z,9.07
2022-10-04T21:14:21.851Z,9.25
2022-10-04T21:16:50.486Z,9.20
2022-10-04T21:19:43.778Z,8.95
2022-10-04T21:22:28.927Z,8.80
2022-10-04T21:25:01.224Z,9.60
2022-10-04T21:27:30.207Z,8.75
2022-10-04T21:30:00.707Z,9.70
2022-10-04T21:32:33.755Z,8.88
2022-10-04T21:35:00.825Z,9.32
2022-10-04T21:37:29.578Z,9.90
2022-10-04T21:40:01.070Z,8.90
2022-10-04T21:44:56.295Z,8.73
2022-10-04T21:47:23.084Z,9.00
2022-10-04T21:49:50.169Z,9.05
2022-10-04T21:52:19.558Z,8.98
2022-10-04T21:54:46.724Z,9.27
2022-10-04T21:57:16.107Z,8.88
2022-10-04T21:59:46.305Z,8.70
2022-10-04T22:02:13.542Z,9.00
2022-10-04T22:04:40.609Z,8.75
2022-10-04T22:07:09.645Z,8.73
2022-10-04T22:09:40.848Z,9.35
2022-10-04T22:12:07.803Z,9.15
2022-10-04T22:14:38.226Z,9.27
2022-10-04T22:17:05.073Z,9.18
2022-10-04T22:19:31.837Z,8.55
2022-10-04T22:21:58.655Z,8.60
2022-10-04T22:24:26.534Z,8.77
2022-10-04T22:26:56.635Z,8.45
2022-10-04T22:29:23.882Z,8.65
2022-10-04T22:32:11.107Z,8.55
2022-10-04T22:34:38.065Z,8.80
2022-10-04T22:37:10.043Z,9.13
2022-10-04T22:39:36.880Z,9.20
2022-10-04T22:42:04.035Z,8.45
2022-10-04T22:44:38.247Z,9.07
2022-10-04T22:47:11.936Z,8.85
2022-10-04T22:49:42.926Z,8.52
2022-10-04T22:52:18.215Z,9.55
2022-10-04T22:54:49.976Z,8.35
2022-10-04T22:57:21.101Z,8.35
2022-10-04T22:59:54.602Z,8.90
2022-10-04T23:02:25.387Z,9.25
2022-10-04T23:04:54.214Z,8.80
2022-10-04T23:07:23.460Z,8.73
2022-10-04T23:09:51.838Z,9.13
2022-10-04T23:12:25.970Z,8.85
2022-10-04T23:14:53.054Z,8.25
2022-10-04T23:17:29.419Z,9.27
2022-10-04T23:20:03.560Z,8.18
2022-10-04T23:22:30.785Z,8.98
2022-10-04T23:25:00.917Z,8.45
2022-10-04T23:27:32.168Z,9.07
2022-10-04T23:30:03.048Z,8.50
2022-10-04T23:32:32.958Z,8.50
2022-10-04T23:35:03.668Z,7.47
2022-10-04T23:37:32.333Z,8.10
2022-10-04T23:40:06.752Z,8.52
2022-10-04T23:42:34.152Z,8.20
2022-10-04T23:45:02.032Z,7.88
2022-10-04T23:47:34.646Z,7.40
2022-10-04T23:50:02.438Z,7.18
2022-10-04T23:52:36.508Z,7.47
2022-10-04T23:55:14.097Z,7.13
2022-10-04T23:57:43.351Z,7.68
